Featured Flight

MET1453 - Detroit to Chicago

Boeing 737-200
711MT
0 hrs 40 mins
199 nm
Scheduled - Daily

Bid/PiRep Status

Bid was submitted on Dec 27 2016.

PiRep # 74493: Approved by Dave Nichols on December 30th, 2016 7:54 UTC

Departure

Departing from
Detroit (DTW)
Departure gate
Scheduled Departure
GMT 1950
Local 1550
METAR KDTW 280153Z 34005KT 10SM OVC035 14/09 A2991 RMK AO2 SLP130 T01390094
TAF KDTW 280159Z 2802/2906 34005KT P6SM SCT025 OVC035 FM280400 01005KT P6SM BKN015 OVC030 FM280700 03006KT 3SM BR OVC008 FM281500 01010KT P6SM OVC018 FM281800 01010KT P6SM BKN022 FM290200 02006KT P6SM FEW025

Arrival

Arriving at
Chicago (MDW)
Arrival gate
Scheduled Arrival
GMT 2030
Local 1530

Route Map

Planning Resources

DTW JXN LFD GSH CGT MDW
JXN V116 LEROY GSH
CRL.BENJO.GIJ.
CRL-BENJO-GIJ
PALACE3 LEROY GSH GSH3
Route:
OFP Layout:
Units:
Detailed Navlog:
ETOPS Planning:
Plan Stepclimbs:
Runway Analysis:
Include NOTAMS:
FIR NOTAMS:
Flight Maps:

Popularity

Hub Current Bids PiReps this month Total PiReps
KMCI 0 0 1
KLAX 0 0 1
KBOS 0 0 0